createdAt,value
2022-07-27T00:00:50.228Z,1011.15
2022-07-27T00:01:51.026Z,1011.16
2022-07-27T00:02:51.629Z,1011.07
2022-07-27T00:03:50.301Z,1011.11
2022-07-27T00:04:50.299Z,1011.09
2022-07-27T00:05:50.259Z,1011.10
2022-07-27T00:06:50.282Z,1011.12
2022-07-27T00:07:50.302Z,1011.11
2022-07-27T00:08:50.319Z,1011.15
2022-07-27T00:09:50.341Z,1011.15
2022-07-27T00:10:50.360Z,1011.18
2022-07-27T00:11:50.380Z,1011.21
2022-07-27T00:12:50.399Z,1011.21
2022-07-27T00:13:50.422Z,1011.20
2022-07-27T00:14:50.439Z,1011.20
2022-07-27T00:15:50.521Z,1011.18
2022-07-27T00:16:50.536Z,1011.23
2022-07-27T00:17:50.503Z,1011.25
2022-07-27T00:18:50.526Z,1011.21
2022-07-27T00:19:50.540Z,1011.20
2022-07-27T00:20:50.571Z,1011.26
2022-07-27T00:21:50.598Z,1011.25
2022-07-27T00:22:50.599Z,1011.24
2022-07-27T00:23:50.618Z,1011.26
2022-07-27T00:24:50.639Z,1011.27
2022-07-27T00:25:50.660Z,1011.23
2022-07-27T00:26:50.682Z,1011.26
2022-07-27T00:27:50.701Z,1011.20
2022-07-27T00:28:50.723Z,1011.24
2022-07-27T00:29:50.742Z,1011.18
2022-07-27T00:30:50.762Z,1011.18
2022-07-27T00:31:50.830Z,1011.15
2022-07-27T00:32:50.800Z,1011.19
2022-07-27T00:33:50.821Z,1011.15
2022-07-27T00:34:50.840Z,1011.11
2022-07-27T00:35:50.864Z,1011.03
2022-07-27T00:36:50.898Z,1011.09
2022-07-27T00:37:50.902Z,1011.07
2022-07-27T00:38:50.920Z,1011.03
2022-07-27T00:39:50.945Z,1011.05
2022-07-27T00:40:50.960Z,1011.01
2022-07-27T00:41:50.978Z,1011.05
2022-07-27T00:42:50.999Z,1011.05
2022-07-27T00:43:51.016Z,1011.01
2022-07-27T00:44:51.038Z,1011.03
2022-07-27T00:45:51.056Z,1011.06
2022-07-27T00:46:51.100Z,1011.06
2022-07-27T00:47:54.916Z,1011.06
2022-07-27T00:48:51.184Z,1011.11
2022-07-27T00:49:51.135Z,1011.14
2022-07-27T00:50:51.157Z,1011.13
2022-07-27T00:51:51.174Z,1011.14
2022-07-27T00:52:51.197Z,1011.15
2022-07-27T00:53:51.213Z,1011.12
2022-07-27T00:54:51.237Z,1011.17
2022-07-27T00:55:51.259Z,1011.14
2022-07-27T00:56:51.271Z,1011.17
2022-07-27T00:57:58.002Z,1011.11
2022-07-27T00:58:51.312Z,1011.13
2022-07-27T00:59:51.335Z,1011.08
2022-07-27T01:00:51.355Z,1011.11
2022-07-27T01:01:51.488Z,1011.15
2022-07-27T01:02:51.525Z,1011.16
2022-07-27T01:03:51.422Z,1011.22
2022-07-27T01:04:56.831Z,1011.22
2022-07-27T01:05:51.450Z,1011.19
2022-07-27T01:06:51.472Z,1011.23
2022-07-27T01:07:51.489Z,1011.21
2022-07-27T01:08:51.507Z,1011.21
2022-07-27T01:09:51.525Z,1011.21
2022-07-27T01:10:51.546Z,1011.18
2022-07-27T01:11:51.567Z,1011.21
2022-07-27T01:12:51.587Z,1011.20
2022-07-27T01:13:51.604Z,1011.24
2022-07-27T01:14:51.628Z,1011.25
2022-07-27T01:15:51.701Z,1011.24
2022-07-27T01:16:51.660Z,1011.23
2022-07-27T01:17:51.682Z,1011.25
2022-07-27T01:18:51.700Z,1011.26
2022-07-27T01:19:51.718Z,1011.24
2022-07-27T01:20:51.738Z,1011.22
2022-07-27T01:21:51.759Z,1011.23
2022-07-27T01:22:51.780Z,1011.20
2022-07-27T01:23:51.796Z,1011.22
2022-07-27T01:24:51.816Z,1011.25
2022-07-27T01:25:51.870Z,1011.22
2022-07-27T01:26:51.856Z,1011.21
2022-07-27T01:27:51.881Z,1011.22
2022-07-27T01:28:51.897Z,1011.21
2022-07-27T01:29:51.910Z,1011.26
2022-07-27T01:30:51.986Z,1011.27
2022-07-27T01:31:51.949Z,1011.27
2022-07-27T01:32:51.968Z,1011.29
2022-07-27T01:33:51.986Z,1011.31
2022-07-27T01:34:52.007Z,1011.28
2022-07-27T01:35:52.024Z,1011.30
2022-07-27T01:36:52.045Z,1011.33
2022-07-27T01:37:52.065Z,1011.34
2022-07-27T01:38:52.079Z,1011.34
2022-07-27T01:39:52.100Z,1011.37
2022-07-27T01:40:52.119Z,1011.39
2022-07-27T01:41:52.138Z,1011.43
2022-07-27T01:42:52.155Z,1011.41
2022-07-27T01:43:52.176Z,1011.39
2022-07-27T01:44:52.193Z,1011.42
2022-07-27T01:45:52.221Z,1011.39
2022-07-27T01:46:52.349Z,1011.39
2022-07-27T01:47:52.247Z,1011.37
2022-07-27T01:48:52.355Z,1011.34
2022-07-27T01:49:52.290Z,1011.32
2022-07-27T01:50:52.307Z,1011.32
2022-07-27T01:51:52.325Z,1011.29
2022-07-27T01:52:52.346Z,1011.35
2022-07-27T01:53:52.366Z,1011.35
2022-07-27T01:54:52.382Z,1011.38
2022-07-27T01:55:52.401Z,1011.41
2022-07-27T01:56:52.426Z,1011.40
2022-07-27T01:57:52.437Z,1011.40
2022-07-27T01:58:52.455Z,1011.40
2022-07-27T01:59:52.474Z,1011.42
2022-07-27T02:00:52.494Z,1011.39
2022-07-27T02:01:52.576Z,1011.37
2022-07-27T02:02:52.530Z,1011.33
2022-07-27T02:03:52.550Z,1011.30
2022-07-27T02:04:52.611Z,1011.33
2022-07-27T02:05:52.584Z,1011.32
2022-07-27T02:06:52.604Z,1011.30
2022-07-27T02:07:52.622Z,1011.29
2022-07-27T02:08:52.640Z,1011.30
2022-07-27T02:09:52.660Z,1011.28
2022-07-27T02:10:52.680Z,1011.24
2022-07-27T02:11:52.697Z,1011.25
2022-07-27T02:12:52.713Z,1011.22
2022-07-27T02:13:52.733Z,1011.21
2022-07-27T02:14:52.751Z,1011.23
2022-07-27T02:15:54.595Z,1011.29
2022-07-27T02:16:52.795Z,1011.32
2022-07-27T02:17:52.806Z,1011.33
2022-07-27T02:18:52.826Z,1011.32
2022-07-27T02:19:52.851Z,1011.34
2022-07-27T02:20:52.869Z,1011.34
2022-07-27T02:21:52.883Z,1011.36
2022-07-27T02:22:52.902Z,1011.36
2022-07-27T02:23:52.914Z,1011.37
2022-07-27T02:24:52.933Z,1011.40
2022-07-27T02:25:52.951Z,1011.43
2022-07-27T02:26:52.969Z,1011.39
2022-07-27T02:27:52.987Z,1011.40
2022-07-27T02:28:53.005Z,1011.45
2022-07-27T02:29:53.029Z,1011.48
2022-07-27T02:30:53.043Z,1011.42
2022-07-27T02:31:53.061Z,1011.46
2022-07-27T02:32:53.165Z,1011.49
2022-07-27T02:33:53.094Z,1011.52
2022-07-27T02:34:53.114Z,1011.52
2022-07-27T02:35:53.131Z,1011.53
2022-07-27T02:36:53.149Z,1011.53
2022-07-27T02:37:53.168Z,1011.53
2022-07-27T02:38:53.185Z,1011.51
2022-07-27T02:39:53.204Z,1011.50
2022-07-27T02:40:53.228Z,1011.49
2022-07-27T02:41:53.239Z,1011.51
2022-07-27T02:42:53.261Z,1011.48
2022-07-27T02:43:53.274Z,1011.52
2022-07-27T02:44:53.295Z,1011.50
2022-07-27T02:45:53.350Z,1011.54
2022-07-27T02:46:53.330Z,1011.53
2022-07-27T02:47:53.345Z,1011.52
2022-07-27T02:48:53.415Z,1011.51
2022-07-27T02:49:53.382Z,1011.47
2022-07-27T02:50:53.412Z,1011.48
2022-07-27T02:51:53.425Z,1011.49
2022-07-27T02:52:53.436Z,1011.47
2022-07-27T02:53:53.454Z,1011.45
2022-07-27T02:54:53.473Z,1011.44
2022-07-27T02:55:53.489Z,1011.45
2022-07-27T02:56:53.508Z,1011.45
2022-07-27T02:57:53.524Z,1011.45
2022-07-27T02:58:53.544Z,1011.43
2022-07-27T02:59:53.561Z,1011.44
2022-07-27T03:00:58.091Z,1011.43
2022-07-27T03:01:53.642Z,1011.48
2022-07-27T03:02:53.615Z,1011.46
2022-07-27T03:03:53.728Z,1011.48
2022-07-27T03:04:53.650Z,1011.49
2022-07-27T03:05:53.675Z,1011.52
2022-07-27T03:06:53.684Z,1011.49
2022-07-27T03:07:53.704Z,1011.51
2022-07-27T03:08:53.720Z,1011.51
2022-07-27T03:09:53.737Z,1011.52
2022-07-27T03:10:53.775Z,1011.51
2022-07-27T03:11:53.771Z,1011.50
2022-07-27T03:12:53.789Z,1011.45
2022-07-27T03:13:53.812Z,1011.45
2022-07-27T03:14:53.830Z,1011.43
2022-07-27T03:15:53.976Z,1011.46
2022-07-27T03:16:53.875Z,1011.48
2022-07-27T03:17:53.877Z,1011.51
2022-07-27T03:18:53.897Z,1011.53
2022-07-27T03:19:53.915Z,1011.52
2022-07-27T03:20:53.931Z,1011.51
2022-07-27T03:21:53.949Z,1011.55
2022-07-27T03:22:53.967Z,1011.51
2022-07-27T03:23:53.984Z,1011.54
2022-07-27T03:24:53.998Z,1011.55
2022-07-27T03:25:54.019Z,1011.53
2022-07-27T03:26:54.036Z,1011.54
2022-07-27T03:27:54.062Z,1011.58
2022-07-27T03:28:54.075Z,1011.59
2022-07-27T03:29:54.092Z,1011.59
2022-07-27T03:30:54.156Z,1011.57
2022-07-27T03:31:54.123Z,1011.55
2022-07-27T03:32:54.144Z,1011.54
2022-07-27T03:33:54.160Z,1011.56
2022-07-27T03:34:54.183Z,1011.58
2022-07-27T03:35:54.194Z,1011.58
2022-07-27T03:36:54.212Z,1011.63
2022-07-27T03:37:54.237Z,1011.66
2022-07-27T03:38:54.249Z,1011.67
2022-07-27T03:39:54.265Z,1011.69
2022-07-27T03:40:54.284Z,1011.67
2022-07-27T03:41:54.299Z,1011.74
2022-07-27T03:42:54.319Z,1011.71
2022-07-27T03:43:54.334Z,1011.69
2022-07-27T03:44:54.355Z,1011.68
2022-07-27T03:45:54.443Z,1011.66
2022-07-27T03:46:54.389Z,1011.63
2022-07-27T03:47:54.404Z,1011.68
2022-07-27T03:48:54.441Z,1011.65
2022-07-27T03:49:54.444Z,1011.66
2022-07-27T03:50:54.462Z,1011.65
2022-07-27T03:51:54.478Z,1011.66
2022-07-27T03:52:54.496Z,1011.64
2022-07-27T03:53:54.515Z,1011.63
2022-07-27T03:54:54.528Z,1011.63
2022-07-27T03:55:54.549Z,1011.70
2022-07-27T03:56:54.564Z,1011.67
2022-07-27T03:57:54.582Z,1011.69
2022-07-27T03:58:54.603Z,1011.65
2022-07-27T03:59:54.619Z,1011.60
2022-07-27T04:00:54.688Z,1011.61
2022-07-27T04:01:54.655Z,1011.64
2022-07-27T04:02:54.729Z,1011.65
2022-07-27T04:03:54.692Z,1011.64
2022-07-27T04:04:54.714Z,1011.64
2022-07-27T04:05:54.832Z,1011.66
2022-07-27T04:06:54.746Z,1011.63
2022-07-27T04:07:55.126Z,1011.68
2022-07-27T04:08:59.682Z,1011.64
2022-07-27T04:09:54.798Z,1011.67
2022-07-27T04:10:54.817Z,1011.60
2022-07-27T04:11:55.678Z,1011.64
2022-07-27T04:12:54.850Z,1011.62
2022-07-27T04:13:54.869Z,1011.61
2022-07-27T04:14:54.889Z,1011.63
2022-07-27T04:15:54.906Z,1011.60
2022-07-27T04:16:54.967Z,1011.61
2022-07-27T04:17:57.551Z,1011.60
2022-07-27T04:18:54.955Z,1011.60
2022-07-27T04:19:54.975Z,1011.60
2022-07-27T04:20:54.995Z,1011.55
2022-07-27T04:21:55.010Z,1011.55
2022-07-27T04:22:55.029Z,1011.52
2022-07-27T04:23:55.048Z,1011.57
2022-07-27T04:24:55.065Z,1011.56
2022-07-27T04:25:55.084Z,1011.54
2022-07-27T04:26:55.106Z,1011.58
2022-07-27T04:27:55.121Z,1011.59
2022-07-27T04:28:55.165Z,1011.58
2022-07-27T04:29:55.155Z,1011.59
2022-07-27T04:30:55.213Z,1011.57
2022-07-27T04:31:55.191Z,1011.52
2022-07-27T04:32:55.208Z,1011.51
2022-07-27T04:33:55.227Z,1011.55
2022-07-27T04:34:55.245Z,1011.53
2022-07-27T04:35:55.263Z,1011.50
2022-07-27T04:36:55.280Z,1011.48
2022-07-27T04:37:58.875Z,1011.50
2022-07-27T04:38:55.314Z,1011.47
2022-07-27T04:39:55.330Z,1011.48
2022-07-27T04:40:58.322Z,1011.48
2022-07-27T04:41:55.370Z,1011.50
2022-07-27T04:42:55.386Z,1011.47
2022-07-27T04:43:55.406Z,1011.48
2022-07-27T04:44:55.428Z,1011.51
2022-07-27T04:45:55.486Z,1011.52
2022-07-27T04:46:55.461Z,1011.56
2022-07-27T04:47:55.475Z,1011.57
2022-07-27T04:48:55.531Z,1011.56
2022-07-27T04:49:55.514Z,1011.58
2022-07-27T04:50:55.531Z,1011.60
2022-07-27T04:51:55.549Z,1011.58
2022-07-27T04:52:55.566Z,1011.57
2022-07-27T04:53:58.489Z,1011.53
2022-07-27T04:54:55.607Z,1011.49
2022-07-27T04:55:55.620Z,1011.55
2022-07-27T04:56:55.640Z,1011.51
2022-07-27T04:57:55.657Z,1011.55
2022-07-27T04:58:55.677Z,1011.49
2022-07-27T04:59:55.692Z,1011.56
2022-07-27T05:00:55.760Z,1011.57
2022-07-27T05:01:55.825Z,1011.58
2022-07-27T05:02:55.749Z,1011.59
2022-07-27T05:03:55.805Z,1011.64
2022-07-27T05:04:55.787Z,1011.67
2022-07-27T05:05:55.804Z,1011.67
2022-07-27T05:06:55.820Z,1011.68
2022-07-27T05:07:55.842Z,1011.68
2022-07-27T05:08:55.858Z,1011.74
2022-07-27T05:09:55.875Z,1011.72
2022-07-27T05:10:56.014Z,1011.69
2022-07-27T05:11:55.914Z,1011.71
2022-07-27T05:12:55.934Z,1011.68
2022-07-27T05:13:55.951Z,1011.68
2022-07-27T05:14:55.970Z,1011.69
2022-07-27T05:15:56.160Z,1011.67
2022-07-27T05:16:56.073Z,1011.71
2022-07-27T05:17:56.027Z,1011.69
2022-07-27T05:18:56.046Z,1011.67
2022-07-27T05:19:56.064Z,1011.70
2022-07-27T05:20:56.089Z,1011.72
2022-07-27T05:21:56.103Z,1011.74
2022-07-27T05:22:56.121Z,1011.73
2022-07-27T05:23:56.139Z,1011.74
2022-07-27T05:24:56.161Z,1011.79
2022-07-27T05:25:56.183Z,1011.77
2022-07-27T05:26:56.198Z,1011.76
2022-07-27T05:27:56.215Z,1011.80
2022-07-27T05:28:56.236Z,1011.84
2022-07-27T05:29:56.255Z,1011.82
2022-07-27T05:30:56.276Z,1011.85
2022-07-27T05:31:56.351Z,1011.82
2022-07-27T05:32:56.311Z,1011.89
2022-07-27T05:33:58.448Z,1011.92
2022-07-27T05:34:56.352Z,1011.95
2022-07-27T05:35:56.369Z,1011.94
2022-07-27T05:36:56.389Z,1011.97
2022-07-27T05:37:56.456Z,1011.95
2022-07-27T05:38:56.431Z,1011.93
2022-07-27T05:39:56.447Z,1011.96
2022-07-27T05:40:56.465Z,1011.98
2022-07-27T05:41:56.487Z,1011.97
2022-07-27T05:42:56.503Z,1012.02
2022-07-27T05:43:56.521Z,1012.00
2022-07-27T05:44:56.546Z,1011.99
2022-07-27T05:45:56.626Z,1012.07
2022-07-27T05:46:56.581Z,1012.08
2022-07-27T05:47:56.599Z,1012.08
2022-07-27T05:48:56.764Z,1012.12
2022-07-27T05:49:56.639Z,1012.14
2022-07-27T05:50:56.670Z,1012.17
2022-07-27T05:51:56.677Z,1012.18
2022-07-27T05:52:56.699Z,1012.21
2022-07-27T05:53:56.716Z,1012.22
2022-07-27T05:54:56.735Z,1012.23
2022-07-27T05:55:58.048Z,1012.24
2022-07-27T05:56:56.774Z,1012.24
2022-07-27T05:57:56.803Z,1012.21
2022-07-27T05:58:56.817Z,1012.23
2022-07-27T05:59:56.832Z,1012.22
2022-07-27T06:00:56.951Z,1012.25
2022-07-27T06:01:56.872Z,1012.24
2022-07-27T06:02:56.903Z,1012.14
2022-07-27T06:03:56.947Z,1012.14
2022-07-27T06:04:56.932Z,1012.15
2022-07-27T06:05:56.950Z,1012.18
2022-07-27T06:06:56.968Z,1012.20
2022-07-27T06:07:56.996Z,1012.22
2022-07-27T06:08:57.006Z,1012.23
2022-07-27T06:09:57.029Z,1012.26
2022-07-27T06:10:57.048Z,1012.19
2022-07-27T06:11:57.065Z,1012.25
2022-07-27T06:12:57.085Z,1012.21
2022-07-27T06:13:57.106Z,1012.23
2022-07-27T06:14:57.125Z,1012.24
2022-07-27T06:15:57.142Z,1012.20
2022-07-27T06:16:57.234Z,1012.18
2022-07-27T06:17:57.183Z,1012.18
2022-07-27T06:18:57.199Z,1012.16
2022-07-27T06:19:57.219Z,1012.17
2022-07-27T06:20:57.244Z,1012.17
2022-07-27T06:21:57.260Z,1012.14
2022-07-27T06:22:57.283Z,1012.12
2022-07-27T06:23:57.299Z,1012.08
2022-07-27T06:24:57.320Z,1012.10
2022-07-27T06:25:57.364Z,1012.09
2022-07-27T06:26:57.361Z,1012.13
2022-07-27T06:27:57.380Z,1012.10
2022-07-27T06:28:57.411Z,1012.19
2022-07-27T06:29:57.417Z,1012.17
2022-07-27T06:30:57.437Z,1012.18
2022-07-27T06:31:57.479Z,1012.19
2022-07-27T06:32:57.478Z,1012.26
2022-07-27T06:33:57.500Z,1012.26
2022-07-27T06:34:57.519Z,1012.27
2022-07-27T06:35:57.537Z,1012.27
2022-07-27T06:36:57.559Z,1012.29
2022-07-27T06:37:57.576Z,1012.27
2022-07-27T06:38:57.620Z,1012.28
2022-07-27T06:39:57.625Z,1012.31
2022-07-27T06:40:57.651Z,1012.28
2022-07-27T06:41:58.407Z,1012.26
2022-07-27T06:42:57.682Z,1012.26
2022-07-27T06:43:57.700Z,1012.29
2022-07-27T06:44:57.721Z,1012.30
2022-07-27T06:45:57.742Z,1012.33
2022-07-27T06:46:57.838Z,1012.38
2022-07-27T06:47:57.792Z,1012.35
2022-07-27T06:48:57.835Z,1012.36
2022-07-27T06:49:57.827Z,1012.43
2022-07-27T06:50:57.848Z,1012.39
2022-07-27T06:51:57.870Z,1012.37
2022-07-27T06:52:57.889Z,1012.42
2022-07-27T06:53:57.912Z,1012.41
2022-07-27T06:54:57.933Z,1012.46
2022-07-27T06:55:57.952Z,1012.44
2022-07-27T06:56:57.976Z,1012.47
2022-07-27T06:57:57.996Z,1012.53
2022-07-27T06:58:58.018Z,1012.49
2022-07-27T06:59:58.040Z,1012.54
2022-07-27T07:00:58.105Z,1012.51
2022-07-27T07:01:58.084Z,1012.53
2022-07-27T07:02:58.105Z,1012.56
2022-07-27T07:03:58.202Z,1012.59
2022-07-27T07:04:58.153Z,1012.57
2022-07-27T07:05:58.171Z,1012.58
2022-07-27T07:06:58.193Z,1012.56
2022-07-27T07:07:58.217Z,1012.62
2022-07-27T07:08:58.236Z,1012.55
2022-07-27T07:09:58.262Z,1012.55
2022-07-27T07:10:58.289Z,1012.52
2022-07-27T07:11:58.308Z,1012.53
2022-07-27T07:12:58.325Z,1012.52
2022-07-27T07:13:58.351Z,1012.47
2022-07-27T07:14:58.371Z,1012.53
2022-07-27T07:15:58.456Z,1012.47
2022-07-27T07:16:58.418Z,1012.45
2022-07-27T07:17:58.441Z,1012.51
2022-07-27T07:18:58.465Z,1012.50
2022-07-27T07:19:58.488Z,1012.52
2022-07-27T07:20:58.508Z,1012.47
2022-07-27T07:21:58.531Z,1012.49
2022-07-27T07:22:58.564Z,1012.54
2022-07-27T07:23:58.593Z,1012.52
2022-07-27T07:25:02.686Z,1012.50
2022-07-27T07:25:58.725Z,1012.52
2022-07-27T07:26:58.649Z,1012.51
2022-07-27T07:27:58.673Z,1012.51
2022-07-27T07:28:58.696Z,1012.56
2022-07-27T07:29:58.719Z,1012.48
2022-07-27T07:30:58.850Z,1012.49
2022-07-27T07:31:58.831Z,1012.58
2022-07-27T07:32:58.789Z,1012.60
2022-07-27T07:33:58.815Z,1012.61
2022-07-27T07:34:58.837Z,1012.63
2022-07-27T07:36:13.511Z,1012.70
2022-07-27T07:36:58.886Z,1012.73
2022-07-27T07:37:58.915Z,1012.69
2022-07-27T07:38:58.936Z,1012.72
2022-07-27T07:40:08.180Z,1012.68
2022-07-27T07:40:58.986Z,1012.66
2022-07-27T07:41:59.013Z,1012.69
2022-07-27T07:42:59.038Z,1012.66
2022-07-27T07:43:59.059Z,1012.69
2022-07-27T07:44:59.087Z,1012.69
2022-07-27T07:45:59.110Z,1012.65
2022-07-27T07:46:59.254Z,1012.66
2022-07-27T07:47:59.159Z,1012.60
2022-07-27T07:48:59.272Z,1012.60
2022-07-27T07:49:59.212Z,1012.58
2022-07-27T07:50:59.235Z,1012.59
2022-07-27T07:51:59.258Z,1012.57
2022-07-27T07:52:59.295Z,1012.57
2022-07-27T07:53:59.313Z,1012.63
2022-07-27T07:54:59.339Z,1012.67
2022-07-27T07:55:59.358Z,1012.72
2022-07-27T07:56:59.383Z,1012.71
2022-07-27T07:57:59.410Z,1012.69
2022-07-27T07:58:59.433Z,1012.72
2022-07-27T07:59:59.457Z,1012.69
2022-07-27T08:00:59.483Z,1012.71
2022-07-27T08:01:59.585Z,1012.69
2022-07-27T08:02:59.615Z,1012.66
2022-07-27T08:03:59.560Z,1012.66
2022-07-27T08:04:59.586Z,1012.61
2022-07-27T08:05:59.620Z,1012.62
2022-07-27T08:06:59.637Z,1012.60
2022-07-27T08:07:59.665Z,1012.59
2022-07-27T08:08:59.683Z,1012.58
2022-07-27T08:09:59.709Z,1012.61
2022-07-27T08:10:59.733Z,1012.59
2022-07-27T08:11:59.756Z,1012.60
2022-07-27T08:12:59.780Z,1012.65
2022-07-27T08:13:59.807Z,1012.59
2022-07-27T08:14:59.831Z,1012.59
2022-07-27T08:15:59.933Z,1012.62
2022-07-27T08:16:59.880Z,1012.60
2022-07-27T08:17:59.907Z,1012.60
2022-07-27T08:18:59.929Z,1012.58
2022-07-27T08:19:59.952Z,1012.60
2022-07-27T08:20:59.977Z,1012.61
2022-07-27T08:22:00.002Z,1012.60
2022-07-27T08:23:00.025Z,1012.57
2022-07-27T08:24:00.050Z,1012.62
2022-07-27T08:25:00.074Z,1012.64
2022-07-27T08:26:04.172Z,1012.68
2022-07-27T08:27:00.123Z,1012.62
2022-07-27T08:28:00.155Z,1012.63
2022-07-27T08:29:09.077Z,1012.65
2022-07-27T08:30:00.195Z,1012.68
2022-07-27T08:31:00.283Z,1012.70
2022-07-27T08:32:00.277Z,1012.70
2022-07-27T08:33:00.266Z,1012.76
2022-07-27T08:34:00.287Z,1012.79
2022-07-27T08:35:00.313Z,1012.77
2022-07-27T08:36:00.335Z,1012.68
2022-07-27T08:37:00.359Z,1012.75
2022-07-27T08:38:00.401Z,1012.78
2022-07-27T08:39:00.407Z,1012.76
2022-07-27T08:41:00.454Z,1012.86
2022-07-27T08:42:00.479Z,1012.93
2022-07-27T08:43:00.505Z,1012.93
2022-07-27T08:44:00.527Z,1012.87
2022-07-27T08:45:00.552Z,1012.89
2022-07-27T08:46:00.659Z,1012.88
2022-07-27T08:47:00.646Z,1012.84
2022-07-27T08:48:00.621Z,1012.82
2022-07-27T08:49:00.724Z,1012.84
2022-07-27T08:50:00.727Z,1012.79
2022-07-27T08:51:00.690Z,1012.78
2022-07-27T08:52:00.717Z,1012.77
2022-07-27T08:53:00.738Z,1012.82
2022-07-27T08:54:00.768Z,1012.81
2022-07-27T08:55:00.789Z,1012.73
2022-07-27T08:56:00.810Z,1012.77
2022-07-27T08:57:00.833Z,1012.75
2022-07-27T08:58:03.131Z,1012.77
2022-07-27T08:59:00.885Z,1012.77
2022-07-27T09:00:00.904Z,1012.79
2022-07-27T09:01:00.931Z,1012.81
2022-07-27T09:02:03.285Z,1012.80
2022-07-27T09:03:01.147Z,1012.77
2022-07-27T09:04:01.002Z,1012.80
2022-07-27T09:05:01.025Z,1012.84
2022-07-27T09:06:01.049Z,1012.88
2022-07-27T09:07:01.070Z,1012.87
2022-07-27T09:08:01.094Z,1012.91
2022-07-27T09:09:01.118Z,1012.79
2022-07-27T09:10:01.142Z,1012.76
2022-07-27T09:11:01.165Z,1012.77
2022-07-27T09:12:01.190Z,1012.79
2022-07-27T09:13:01.215Z,1012.78
2022-07-27T09:14:01.237Z,1012.88
2022-07-27T09:15:01.261Z,1012.89
2022-07-27T09:16:18.686Z,1012.83
2022-07-27T09:17:46.717Z,1012.81
2022-07-27T09:18:01.379Z,1012.79
2022-07-27T09:19:01.358Z,1012.82
2022-07-27T09:20:01.379Z,1012.79
2022-07-27T09:21:01.407Z,1012.81
2022-07-27T09:22:01.430Z,1012.82
2022-07-27T09:23:01.460Z,1012.99
2022-07-27T09:24:01.490Z,1013.07
2022-07-27T09:25:01.502Z,1013.06
2022-07-27T09:26:04.438Z,1012.99
2022-07-27T09:27:01.557Z,1013.04
2022-07-27T09:28:01.577Z,1012.83
2022-07-27T09:29:01.624Z,1012.85
2022-07-27T09:30:01.628Z,1012.89
2022-07-27T09:31:01.704Z,1012.73
2022-07-27T09:32:01.678Z,1012.68
2022-07-27T09:33:01.706Z,1012.58
2022-07-27T09:34:01.733Z,1012.55
2022-07-27T09:35:01.756Z,1012.62
2022-07-27T09:36:01.782Z,1012.58
2022-07-27T09:37:01.809Z,1012.59
2022-07-27T09:38:01.838Z,1012.61
2022-07-27T09:39:02.828Z,1012.58
2022-07-27T09:40:01.889Z,1012.62
2022-07-27T09:41:01.917Z,1012.62
2022-07-27T09:42:02.128Z,1012.68
2022-07-27T09:43:07.376Z,1012.72
2022-07-27T09:45:02.013Z,1012.78
2022-07-27T09:46:02.068Z,1012.77
2022-07-27T09:47:02.144Z,1012.75
2022-07-27T09:48:02.087Z,1012.79
2022-07-27T09:49:02.144Z,1012.81
2022-07-27T09:50:02.135Z,1012.88
2022-07-27T09:51:03.639Z,1012.96
2022-07-27T09:52:02.784Z,1012.94
2022-07-27T09:53:14.621Z,1012.95
2022-07-27T09:54:02.232Z,1012.90
2022-07-27T09:55:02.255Z,1012.92
2022-07-27T09:56:02.280Z,1012.90
2022-07-27T09:57:02.303Z,1012.89
2022-07-27T09:58:02.335Z,1012.93
2022-07-27T09:59:02.353Z,1012.96
2022-07-27T10:00:02.380Z,1012.97
2022-07-27T10:01:02.404Z,1013.03
2022-07-27T10:02:02.516Z,1012.98
2022-07-27T10:03:02.453Z,1013.02
2022-07-27T10:04:02.513Z,1013.00
2022-07-27T10:05:02.582Z,1012.97
2022-07-27T10:06:02.526Z,1012.95
2022-07-27T10:07:04.715Z,1012.94
2022-07-27T10:08:02.573Z,1012.95
2022-07-27T10:09:02.611Z,1012.96
2022-07-27T10:10:02.622Z,1012.89
2022-07-27T10:11:04.096Z,1012.85
2022-07-27T10:12:02.671Z,1012.79
2022-07-27T10:13:02.698Z,1012.84
2022-07-27T10:14:02.742Z,1012.79
2022-07-27T10:15:02.752Z,1012.72
2022-07-27T10:16:02.881Z,1012.77
2022-07-27T10:17:02.801Z,1012.79
2022-07-27T10:18:06.873Z,1012.82
2022-07-27T10:19:02.849Z,1012.78
2022-07-27T10:20:02.874Z,1012.81
2022-07-27T10:21:02.897Z,1012.93
2022-07-27T10:22:02.923Z,1012.91
2022-07-27T10:23:02.949Z,1012.90
2022-07-27T10:24:02.973Z,1012.96
2022-07-27T10:25:02.997Z,1012.96
2022-07-27T10:26:03.023Z,1012.97
2022-07-27T10:27:03.050Z,1012.90
2022-07-27T10:28:03.074Z,1012.94
2022-07-27T10:29:03.099Z,1012.92
2022-07-27T10:30:03.125Z,1012.88
2022-07-27T10:31:03.193Z,1013.04
2022-07-27T10:32:03.176Z,1012.83
2022-07-27T10:33:03.202Z,1012.85
2022-07-27T10:34:03.229Z,1012.80
2022-07-27T10:35:03.256Z,1012.85
2022-07-27T10:36:03.282Z,1012.85
2022-07-27T10:37:03.309Z,1013.01
2022-07-27T10:38:03.336Z,1012.90
2022-07-27T10:39:03.364Z,1012.89
2022-07-27T10:40:03.390Z,1012.90
2022-07-27T10:41:03.418Z,1013.13
2022-07-27T10:42:03.445Z,1012.86
2022-07-27T10:43:03.476Z,1012.77
2022-07-27T10:44:03.503Z,1012.75
2022-07-27T10:45:03.527Z,1012.76
2022-07-27T10:46:03.686Z,1012.74
2022-07-27T10:47:03.591Z,1012.73
2022-07-27T10:48:03.610Z,1012.83
2022-07-27T10:49:03.692Z,1012.75
2022-07-27T10:50:03.670Z,1012.96
2022-07-27T10:51:03.698Z,1012.75
2022-07-27T10:52:03.727Z,1012.76
2022-07-27T10:53:03.751Z,1012.70
2022-07-27T10:54:12.190Z,1012.66
2022-07-27T10:55:03.810Z,1012.68
2022-07-27T10:56:03.840Z,1012.68
2022-07-27T10:57:03.865Z,1012.62
2022-07-27T10:58:03.895Z,1012.64
2022-07-27T10:59:03.923Z,1012.61
2022-07-27T11:00:08.512Z,1012.90
2022-07-27T11:01:04.036Z,1012.74
2022-07-27T11:02:04.007Z,1012.72
2022-07-27T11:03:04.035Z,1012.89
2022-07-27T11:04:04.087Z,1012.83
2022-07-27T11:05:04.096Z,1012.87
2022-07-27T11:06:30.781Z,1012.75
2022-07-27T11:09:52.556Z,1012.79
2022-07-27T11:10:05.160Z,1012.79
2022-07-27T11:11:04.279Z,1012.69
2022-07-27T11:12:04.301Z,1012.66
2022-07-27T11:13:05.650Z,1012.76
2022-07-27T11:14:04.364Z,1012.65
2022-07-27T11:15:04.399Z,1012.63
2022-07-27T11:17:32.330Z,1012.58
2022-07-27T11:18:05.307Z,1012.80
2022-07-27T11:19:04.615Z,1012.67
2022-07-27T11:20:04.552Z,1012.72
2022-07-27T11:21:04.897Z,1012.84
2022-07-27T11:22:04.887Z,1012.75
2022-07-27T11:24:04.665Z,1012.72
2022-07-27T11:25:04.696Z,1012.71
2022-07-27T11:26:04.725Z,1012.74
2022-07-27T11:27:17.139Z,1012.68
2022-07-27T11:28:04.783Z,1012.72
2022-07-27T11:29:04.816Z,1012.73
2022-07-27T11:30:04.843Z,1012.73
2022-07-27T11:31:04.907Z,1012.61
2022-07-27T11:32:04.988Z,1012.61
2022-07-27T11:33:04.980Z,1012.56
2022-07-27T11:34:04.959Z,1012.84
2022-07-27T11:35:09.038Z,1012.80
2022-07-27T11:36:05.012Z,1012.79
2022-07-27T11:37:05.042Z,1012.73
2022-07-27T11:38:05.236Z,1012.60
2022-07-27T11:39:05.101Z,1012.52
2022-07-27T11:40:20.287Z,1012.59
2022-07-27T11:41:15.272Z,1012.55
2022-07-27T11:42:08.472Z,1012.55
2022-07-27T11:43:05.220Z,1012.59
2022-07-27T11:44:05.246Z,1012.52
2022-07-27T11:45:05.281Z,1012.56
2022-07-27T11:46:05.327Z,1012.57
2022-07-27T11:47:05.332Z,1012.62
2022-07-27T11:48:05.370Z,1012.64
2022-07-27T11:49:08.008Z,1012.62
2022-07-27T11:50:05.591Z,1012.68
2022-07-27T11:51:05.445Z,1012.63
2022-07-27T11:52:05.470Z,1012.51
2022-07-27T11:53:05.500Z,1012.51
2022-07-27T11:54:05.532Z,1012.58
2022-07-27T11:55:05.558Z,1012.67
2022-07-27T11:56:05.584Z,1012.65
2022-07-27T11:57:05.628Z,1012.61
2022-07-27T11:58:05.641Z,1012.58
2022-07-27T11:59:05.668Z,1012.65
2022-07-27T12:00:05.774Z,1012.68
2022-07-27T12:01:05.723Z,1012.63
2022-07-27T12:02:05.807Z,1012.61
2022-07-27T12:03:05.784Z,1012.60
2022-07-27T12:04:05.806Z,1012.53
2022-07-27T12:05:05.849Z,1012.59
2022-07-27T12:06:05.862Z,1012.55
2022-07-27T12:07:05.900Z,1012.59
2022-07-27T12:08:05.939Z,1012.64
2022-07-27T12:09:05.946Z,1012.69
2022-07-27T12:10:06.019Z,1012.66
2022-07-27T12:11:06.001Z,1012.67
2022-07-27T12:12:06.026Z,1012.86